createdAt,value
2018-11-04T00:00:47.820Z,33.18
2018-11-04T00:03:18.145Z,33.50
2018-11-04T00:05:48.193Z,34.33
2018-11-04T00:08:18.457Z,31.67
2018-11-04T00:10:48.913Z,33.80
2018-11-04T00:13:19.591Z,35.77
2018-11-04T00:15:50.249Z,34.10
2018-11-04T00:18:20.649Z,34.65
2018-11-04T00:20:51.052Z,34.63
2018-11-04T00:23:22.123Z,34.67
2018-11-04T00:25:52.514Z,32.47
2018-11-04T00:28:22.988Z,34.70
2018-11-04T00:30:53.374Z,33.93
2018-11-04T00:33:23.907Z,35.28
2018-11-04T00:35:54.150Z,36.27
2018-11-04T00:38:24.547Z,34.67
2018-11-04T00:40:55.029Z,35.53
2018-11-04T00:43:25.349Z,35.70
2018-11-04T00:45:56.113Z,34.03
2018-11-04T00:48:26.715Z,35.77
2018-11-04T00:50:57.121Z,36.87
2018-11-04T00:53:27.373Z,35.67
2018-11-04T00:55:57.550Z,34.70
2018-11-04T00:58:28.161Z,33.90
2018-11-04T01:00:58.426Z,36.73
2018-11-04T01:03:28.280Z,36.57
2018-11-04T01:05:58.682Z,35.23
2018-11-04T01:08:29.179Z,34.50
2018-11-04T01:10:59.846Z,34.97
2018-11-04T01:13:30.635Z,36.00
2018-11-04T01:16:00.675Z,34.43
2018-11-04T01:18:31.475Z,34.30
2018-11-04T01:21:03.362Z,34.53
2018-11-04T01:23:33.828Z,35.55
2018-11-04T01:26:06.258Z,35.47
2018-11-04T01:28:36.421Z,35.03
2018-11-04T01:31:06.437Z,32.78
2018-11-04T01:33:36.526Z,34.30
2018-11-04T01:36:06.840Z,33.27
2018-11-04T01:38:36.883Z,33.60
2018-11-04T01:41:07.349Z,33.83
2018-11-04T01:43:37.588Z,31.93
2018-11-04T01:46:07.870Z,31.53
2018-11-04T01:48:37.997Z,33.53
2018-11-04T01:51:08.055Z,31.57
2018-11-04T01:53:37.990Z,31.23
2018-11-04T01:56:08.511Z,32.33
2018-11-04T01:58:38.839Z,33.83
2018-11-04T02:01:08.987Z,29.40
2018-11-04T02:03:39.141Z,29.77
2018-11-04T02:06:09.108Z,31.13
2018-11-04T02:08:39.021Z,28.87
2018-11-04T02:11:08.881Z,30.77
2018-11-04T02:13:38.601Z,30.23
2018-11-04T02:16:08.792Z,29.70
2018-11-04T02:18:38.667Z,31.40
2018-11-04T02:21:09.150Z,30.63
2018-11-04T02:23:39.149Z,32.23
2018-11-04T02:26:09.397Z,31.83
2018-11-04T02:28:39.924Z,31.33
2018-11-04T02:31:10.087Z,31.40
2018-11-04T02:33:39.930Z,30.20
2018-11-04T02:36:10.087Z,34.07
2018-11-04T02:38:41.018Z,31.73
2018-11-04T02:41:11.115Z,32.13
2018-11-04T02:43:41.107Z,31.37
2018-11-04T02:46:11.311Z,32.57
2018-11-04T02:48:41.409Z,31.73
2018-11-04T02:51:11.636Z,32.53
2018-11-04T02:53:41.831Z,32.27
2018-11-04T02:56:11.891Z,32.20
2018-11-04T02:58:42.179Z,32.37
2018-11-04T03:01:12.317Z,30.20
2018-11-04T03:03:43.473Z,31.40
2018-11-04T03:06:13.512Z,32.37
2018-11-04T03:08:43.619Z,32.10
2018-11-04T03:11:13.771Z,33.63
2018-11-04T03:13:43.862Z,32.70
2018-11-04T03:16:14.021Z,31.27
2018-11-04T03:18:44.034Z,32.63
2018-11-04T03:21:14.568Z,30.60
2018-11-04T03:23:44.993Z,29.43
2018-11-04T03:26:15.457Z,30.62
2018-11-04T03:28:45.702Z,31.53
2018-11-04T03:31:16.035Z,31.97
2018-11-04T03:33:46.074Z,30.57
2018-11-04T03:36:16.074Z,30.10
2018-11-04T03:38:46.300Z,29.37
2018-11-04T03:41:16.406Z,30.50
2018-11-04T03:43:47.086Z,29.20
2018-11-04T03:46:16.959Z,29.37
2018-11-04T03:48:47.112Z,28.30
2018-11-04T03:51:17.181Z,28.47
2018-11-04T03:53:47.552Z,27.30
2018-11-04T03:56:18.353Z,28.90
2018-11-04T03:58:48.891Z,27.10
2018-11-04T04:01:19.318Z,27.37
2018-11-04T04:03:49.550Z,28.30
2018-11-04T04:06:20.357Z,26.95
2018-11-04T04:08:51.027Z,26.57
2018-11-04T04:11:21.138Z,25.30
2018-11-04T04:13:51.271Z,26.70
2018-11-04T04:16:21.291Z,25.97
2018-11-04T04:18:51.814Z,24.37
2018-11-04T04:21:22.673Z,24.15
2018-11-04T04:23:53.237Z,24.75
2018-11-04T04:26:24.269Z,25.20
2018-11-04T04:28:55.681Z,26.68
2018-11-04T04:31:26.251Z,24.32
2018-11-04T04:33:57.377Z,22.97
2018-11-04T04:36:27.326Z,22.57
2018-11-04T04:38:58.772Z,22.50
2018-11-04T04:41:29.366Z,22.05
2018-11-04T04:44:01.601Z,22.13
2018-11-04T04:46:31.934Z,22.93
2018-11-04T04:49:02.690Z,20.28
2018-11-04T04:51:33.330Z,20.90
2018-11-04T04:54:04.377Z,23.07
2018-11-04T04:56:35.243Z,21.87
2018-11-04T04:59:06.313Z,21.00
2018-11-04T05:01:37.384Z,23.67
2018-11-04T05:04:11.018Z,22.62
2018-11-04T05:06:40.849Z,21.90
2018-11-04T05:09:10.772Z,21.43
2018-11-04T05:11:41.759Z,20.48
2018-11-04T05:14:12.426Z,21.00
2018-11-04T05:16:43.320Z,21.10
2018-11-04T05:19:14.295Z,21.30
2018-11-04T05:21:45.225Z,20.25
2018-11-04T05:24:16.275Z,21.42
2018-11-04T05:26:47.338Z,21.12
2018-11-04T05:29:18.218Z,20.90
2018-11-04T05:31:49.431Z,21.20
2018-11-04T05:34:20.147Z,20.12
2018-11-04T05:36:51.842Z,20.58
2018-11-04T05:39:23.589Z,21.40
2018-11-04T05:41:53.738Z,20.50
2018-11-04T05:44:24.326Z,20.62
2018-11-04T05:46:55.649Z,21.60
2018-11-04T05:49:26.364Z,21.82
2018-11-04T05:51:58.444Z,21.50
2018-11-04T05:54:28.390Z,19.50
2018-11-04T05:56:59.378Z,17.62
2018-11-04T05:59:30.151Z,18.77
2018-11-04T06:02:01.823Z,20.22
2018-11-04T06:04:32.653Z,20.77
2018-11-04T06:07:03.725Z,22.42
2018-11-04T06:09:34.452Z,21.33
2018-11-04T06:12:05.689Z,21.25
2018-11-04T06:14:35.704Z,19.57
2018-11-04T06:17:06.793Z,21.27
2018-11-04T06:19:37.705Z,19.10
2018-11-04T06:22:08.592Z,20.90
2018-11-04T06:24:39.384Z,21.25
2018-11-04T06:27:10.924Z,20.95
2018-11-04T06:29:41.481Z,20.00
2018-11-04T06:32:12.668Z,18.77
2018-11-04T06:34:43.627Z,20.05
2018-11-04T06:37:14.745Z,20.23
2018-11-04T06:39:45.458Z,20.43
2018-11-04T06:42:16.482Z,19.27
2018-11-04T06:44:47.311Z,20.27
2018-11-04T06:47:18.591Z,20.45
2018-11-04T06:49:49.278Z,20.23
2018-11-04T06:52:21.387Z,21.12
2018-11-04T06:54:51.260Z,22.30
2018-11-04T06:57:22.705Z,23.47
2018-11-04T06:59:53.722Z,21.93
2018-11-04T07:02:24.849Z,21.77
2018-11-04T07:04:55.738Z,20.50
2018-11-04T07:07:26.779Z,21.20
2018-11-04T07:09:57.658Z,21.45
2018-11-04T07:12:29.074Z,20.20
2018-11-04T07:14:59.760Z,20.50
2018-11-04T07:17:30.709Z,21.33
2018-11-04T07:20:01.845Z,21.60
2018-11-04T07:22:32.874Z,20.20
2018-11-04T07:25:03.710Z,20.37
2018-11-04T07:27:34.511Z,21.73
2018-11-04T07:30:06.129Z,20.30
2018-11-04T07:32:36.446Z,20.20
2018-11-04T07:35:09.921Z,22.47
2018-11-04T07:37:40.946Z,21.70
2018-11-04T07:40:11.534Z,21.63
2018-11-04T07:42:42.038Z,21.33
2018-11-04T07:45:11.840Z,22.23
2018-11-04T07:47:43.128Z,21.85
2018-11-04T07:50:15.469Z,21.35
2018-11-04T07:52:46.055Z,22.10
2018-11-04T07:55:15.988Z,20.17
2018-11-04T07:57:46.777Z,21.24
2018-11-04T08:00:17.887Z,21.82
2018-11-04T08:02:48.679Z,22.14
2018-11-04T08:05:19.482Z,22.22
2018-11-04T08:07:50.467Z,23.30
2018-11-04T08:10:21.116Z,21.75
2018-11-04T08:12:52.464Z,23.62
2018-11-04T08:15:23.232Z,25.50
2018-11-04T08:17:54.342Z,25.55
2018-11-04T08:20:25.345Z,26.52
2018-11-04T08:22:56.539Z,26.25
2018-11-04T08:25:27.177Z,26.42
2018-11-04T08:27:58.138Z,31.57
2018-11-04T08:30:29.536Z,33.46
2018-11-04T08:33:00.193Z,33.58
2018-11-04T08:35:31.196Z,43.68
2018-11-04T08:38:02.574Z,36.08
2018-11-04T08:40:44.262Z,33.23
2018-11-04T08:43:14.234Z,28.07
2018-11-04T08:45:44.091Z,26.43
2018-11-04T08:48:14.234Z,26.27
2018-11-04T08:50:44.071Z,25.63
2018-11-04T08:53:14.131Z,25.17
2018-11-04T08:55:44.084Z,25.47
2018-11-04T08:58:13.972Z,25.33
2018-11-04T09:00:44.003Z,26.15
2018-11-04T09:03:14.155Z,24.70
2018-11-04T09:05:44.204Z,25.07
2018-11-04T09:08:14.258Z,24.00
2018-11-04T09:10:45.074Z,23.30
2018-11-04T09:13:16.573Z,23.54
2018-11-04T09:15:47.222Z,22.00
2018-11-04T09:18:18.202Z,23.57
2018-11-04T09:20:49.090Z,23.27
2018-11-04T09:23:20.532Z,24.66
2018-11-04T09:25:51.106Z,24.82
2018-11-04T09:28:22.545Z,28.82
2018-11-04T09:30:53.206Z,26.00
2018-11-04T09:33:24.228Z,23.10
2018-11-04T09:35:55.273Z,22.17
2018-11-04T09:38:26.169Z,23.60
2018-11-04T09:40:57.040Z,27.95
2018-11-04T09:43:28.451Z,24.60
2018-11-04T09:45:59.065Z,27.20
2018-11-04T09:48:30.309Z,24.18
2018-11-04T09:51:00.970Z,27.80
2018-11-04T09:53:32.398Z,28.32
2018-11-04T09:56:02.930Z,25.30
2018-11-04T09:58:34.361Z,25.22
2018-11-04T10:01:04.896Z,30.02
2018-11-04T10:03:36.441Z,28.02
2018-11-04T10:06:06.951Z,27.13
2018-11-04T10:08:38.465Z,29.54
2018-11-04T10:11:08.997Z,24.52
2018-11-04T10:13:40.378Z,25.62
2018-11-04T10:16:11.329Z,26.85
2018-11-04T10:18:42.356Z,25.75
2018-11-04T10:21:13.324Z,26.50
2018-11-04T10:23:44.061Z,27.62
2018-11-04T10:26:15.213Z,27.36
2018-11-04T10:28:46.456Z,25.27
2018-11-04T10:31:16.257Z,22.83
2018-11-04T10:33:47.082Z,25.08
2018-11-04T10:36:18.599Z,26.78
2018-11-04T10:38:49.483Z,30.30
2018-11-04T10:41:19.989Z,31.15
2018-11-04T10:43:52.211Z,29.00
2018-11-04T10:46:21.979Z,29.40
2018-11-04T10:48:53.405Z,31.02
2018-11-04T10:51:23.946Z,29.65
2018-11-04T10:53:55.553Z,29.26
2018-11-04T10:56:26.026Z,29.05
2018-11-04T10:58:57.250Z,31.34
2018-11-04T11:01:28.011Z,31.07
2018-11-04T11:03:59.572Z,33.16
2018-11-04T11:06:29.987Z,30.17
2018-11-04T11:09:01.561Z,34.26
2018-11-04T11:11:32.025Z,34.90
2018-11-04T11:14:03.415Z,34.34
2018-11-04T11:16:33.927Z,35.90
2018-11-04T11:19:05.498Z,38.38
2018-11-04T11:21:36.025Z,35.52
2018-11-04T11:24:07.535Z,38.40
2018-11-04T11:26:38.147Z,35.92
2018-11-04T11:29:09.117Z,34.10
2018-11-04T11:31:40.258Z,33.02
2018-11-04T11:34:11.325Z,35.33
2018-11-04T11:36:42.125Z,34.75
2018-11-04T11:39:14.515Z,37.28
2018-11-04T11:41:44.712Z,36.13
2018-11-04T11:44:15.433Z,37.75
2018-11-04T11:46:46.210Z,38.70
2018-11-04T11:49:17.374Z,38.40
2018-11-04T11:51:47.975Z,34.40
2018-11-04T11:54:19.589Z,37.12
2018-11-04T11:56:50.036Z,34.50
2018-11-04T11:59:22.070Z,35.18
2018-11-04T12:01:52.039Z,37.50
2018-11-04T12:04:23.420Z,36.06
2018-11-04T12:06:53.994Z,36.28
2018-11-04T12:09:25.674Z,37.52
2018-11-04T12:11:56.753Z,38.10
2018-11-04T12:14:27.346Z,40.58
2018-11-04T12:16:57.986Z,39.98
2018-11-04T12:19:29.592Z,38.30
2018-11-04T12:22:00.100Z,40.10
2018-11-04T12:24:31.539Z,39.32
2018-11-04T12:27:02.073Z,44.77
2018-11-04T12:29:33.598Z,43.26
2018-11-04T12:32:04.528Z,44.30
2018-11-04T12:34:35.097Z,38.48
2018-11-04T12:37:06.001Z,40.50
2018-11-04T12:39:37.438Z,43.06
2018-11-04T12:42:08.078Z,41.95
2018-11-04T12:44:39.460Z,41.98
2018-11-04T12:47:10.145Z,42.58
2018-11-04T12:49:41.181Z,42.65
2018-11-04T12:52:12.083Z,45.10
2018-11-04T12:54:43.269Z,43.00
2018-11-04T12:57:13.899Z,42.73
2018-11-04T12:59:45.442Z,57.50
2018-11-04T13:02:15.973Z,56.02
2018-11-04T13:04:47.472Z,45.30
2018-11-04T13:07:17.944Z,51.42
2018-11-04T13:09:49.487Z,45.30
2018-11-04T13:12:19.977Z,48.17
2018-11-04T13:14:51.557Z,45.30
2018-11-04T13:17:22.032Z,44.83
2018-11-04T13:19:53.417Z,43.94
2018-11-04T13:22:24.017Z,50.15
2018-11-04T13:24:55.443Z,50.08
2018-11-04T13:27:26.016Z,47.05
2018-11-04T13:29:57.658Z,54.96
2018-11-04T13:32:28.250Z,52.48
2018-11-04T13:34:59.215Z,53.23
2018-11-04T13:37:30.053Z,47.62
2018-11-04T13:40:01.437Z,48.48
2018-11-04T13:42:32.132Z,45.80
2018-11-04T13:45:03.228Z,52.17
2018-11-04T13:47:34.060Z,49.83
2018-11-04T13:50:05.833Z,47.22
2018-11-04T13:52:36.291Z,47.67
2018-11-04T13:55:07.746Z,49.23
2018-11-04T13:57:38.552Z,45.65
2018-11-04T14:00:13.270Z,44.73
2018-11-04T14:02:44.316Z,44.10
2018-11-04T14:05:15.012Z,44.80
2018-11-04T14:07:44.785Z,45.60
2018-11-04T14:10:16.456Z,44.77
2018-11-04T14:12:46.773Z,41.40
2018-11-04T14:15:17.422Z,40.98
2018-11-04T14:17:47.825Z,40.40
2018-11-04T14:20:17.849Z,39.63
2018-11-04T14:22:48.453Z,42.75
2018-11-04T14:25:19.009Z,40.05
2018-11-04T14:27:50.640Z,40.96
2018-11-04T14:30:21.223Z,44.67
2018-11-04T14:32:52.098Z,50.23
2018-11-04T14:35:23.362Z,45.24
2018-11-04T14:37:54.440Z,39.55
2018-11-04T14:40:25.015Z,39.35
2018-11-04T14:42:56.763Z,37.02
2018-11-04T14:45:27.485Z,40.55
2018-11-04T14:47:58.861Z,36.60
2018-11-04T14:50:29.462Z,40.22
2018-11-04T14:53:00.373Z,36.93
2018-11-04T14:55:31.182Z,36.53
2018-11-04T14:58:02.284Z,35.28
2018-11-04T15:00:36.577Z,35.35
2018-11-04T15:03:08.677Z,37.00
2018-11-04T15:05:39.151Z,37.80
2018-11-04T15:08:10.119Z,39.73
2018-11-04T15:10:41.104Z,37.30
2018-11-04T15:13:11.202Z,37.05
2018-11-04T15:15:41.056Z,34.30
2018-11-04T15:18:11.151Z,34.63
2018-11-04T15:20:42.494Z,34.20
2018-11-04T15:23:12.602Z,33.83
2018-11-04T15:25:43.523Z,31.87
2018-11-04T15:28:14.145Z,33.23
2018-11-04T15:30:45.419Z,32.23
2018-11-04T15:33:16.181Z,36.58
2018-11-04T15:35:47.800Z,38.46
2018-11-04T15:38:18.470Z,33.95
2018-11-04T15:40:49.392Z,35.95
2018-11-04T15:43:21.101Z,36.60
2018-11-04T15:45:51.183Z,34.65
2018-11-04T15:48:22.074Z,36.48
2018-11-04T15:50:54.322Z,37.04
2018-11-04T15:53:24.487Z,40.77
2018-11-04T15:55:55.502Z,41.45
2018-11-04T15:58:26.126Z,52.55
2018-11-04T16:00:57.245Z,44.30
2018-11-04T16:03:28.850Z,40.16
2018-11-04T16:05:59.972Z,39.95
2018-11-04T16:08:30.959Z,39.34
2018-11-04T16:11:01.895Z,38.14
2018-11-04T16:13:32.425Z,42.44
2018-11-04T16:16:03.420Z,37.42
2018-11-04T16:18:34.103Z,37.60
2018-11-04T16:21:05.336Z,34.92
2018-11-04T16:23:36.262Z,41.73
2018-11-04T16:26:07.337Z,36.68
2018-11-04T16:28:38.069Z,37.95
2018-11-04T16:31:09.626Z,42.22
2018-11-04T16:33:40.572Z,39.88
2018-11-04T16:36:11.460Z,40.88
2018-11-04T16:38:42.194Z,41.25
2018-11-04T16:41:13.505Z,38.73
2018-11-04T16:43:44.465Z,39.70
2018-11-04T16:46:15.651Z,39.42
2018-11-04T16:48:46.401Z,45.28
2018-11-04T16:51:17.256Z,42.62
2018-11-04T16:53:48.190Z,41.10
2018-11-04T16:56:19.821Z,40.08
2018-11-04T16:58:50.492Z,43.50
2018-11-04T17:01:21.409Z,44.10
2018-11-04T17:03:52.300Z,47.35
2018-11-04T17:06:23.476Z,42.25
2018-11-04T17:08:56.140Z,42.88
2018-11-04T17:11:26.548Z,40.08
2018-11-04T17:13:56.865Z,43.70
2018-11-04T17:16:27.857Z,42.60
2018-11-04T17:18:58.731Z,42.90
2018-11-04T17:21:31.225Z,41.37
2018-11-04T17:24:02.410Z,39.63
2018-11-04T17:26:34.319Z,41.30
2018-11-04T17:29:09.416Z,40.50
2018-11-04T17:31:41.620Z,43.52
2018-11-04T17:34:13.723Z,42.40
2018-11-04T17:36:46.045Z,41.00
2018-11-04T17:39:17.614Z,41.30
2018-11-04T17:41:49.806Z,41.60
2018-11-04T17:44:21.780Z,39.83
2018-11-04T17:46:54.087Z,42.38
2018-11-04T17:49:26.714Z,39.15
2018-11-04T17:51:59.895Z,41.90
2018-11-04T17:54:31.714Z,44.43
2018-11-04T17:57:03.250Z,43.73
2018-11-04T17:59:35.287Z,43.98
2018-11-04T18:02:06.680Z,44.50
2018-11-04T18:04:39.774Z,43.73
2018-11-04T18:07:11.201Z,44.77
2018-11-04T18:09:42.500Z,44.60
2018-11-04T18:12:14.151Z,44.67
2018-11-04T18:14:46.257Z,44.57
2018-11-04T18:17:18.400Z,43.55
2018-11-04T18:19:49.716Z,44.73
2018-11-04T18:22:21.536Z,43.43
2018-11-04T18:24:53.247Z,43.53
2018-11-04T18:27:26.255Z,47.20
2018-11-04T18:29:59.323Z,75.90
2018-11-04T18:32:32.192Z,48.73
2018-11-04T18:35:05.244Z,46.20
2018-11-04T18:37:37.171Z,43.63
2018-11-04T18:40:12.407Z,44.65
2018-11-04T18:42:46.022Z,45.50
2018-11-04T18:45:18.601Z,41.83
2018-11-04T18:47:51.493Z,41.33
2018-11-04T18:50:24.613Z,41.60
2018-11-04T18:52:56.829Z,43.27
2018-11-04T18:55:29.353Z,43.80
2018-11-04T18:58:02.182Z,44.30
2018-11-04T19:00:35.613Z,41.33
2018-11-04T19:03:09.317Z,37.30
2018-11-04T19:05:43.149Z,38.75
2018-11-04T19:08:16.328Z,38.13
2018-11-04T19:10:48.893Z,36.70
2018-11-04T19:13:20.968Z,37.30
2018-11-04T19:15:54.514Z,38.53
2018-11-04T19:18:26.791Z,39.97
2018-11-04T19:20:58.880Z,39.70
2018-11-04T19:23:30.724Z,39.93
2018-11-04T19:26:02.508Z,38.53
2018-11-04T19:28:35.080Z,39.87
2018-11-04T19:31:06.179Z,40.77
2018-11-04T19:33:37.866Z,38.67
2018-11-04T19:36:09.612Z,37.80
2018-11-04T19:38:40.732Z,39.93
2018-11-04T19:41:12.578Z,39.57
2018-11-04T19:43:44.575Z,40.77
2018-11-04T19:46:16.052Z,41.73
2018-11-04T19:48:48.185Z,42.83
2018-11-04T19:51:19.677Z,42.80
2018-11-04T19:53:51.392Z,42.40
2018-11-04T19:56:23.524Z,41.10
2018-11-04T19:58:55.193Z,41.67
2018-11-04T20:01:27.490Z,42.10
2018-11-04T20:04:06.218Z,44.83
2018-11-04T20:06:38.035Z,44.20
2018-11-04T20:09:15.674Z,43.57
2018-11-04T20:11:48.312Z,48.13
2018-11-04T20:14:23.227Z,46.93
2018-11-04T20:16:56.195Z,45.87
2018-11-04T20:19:33.248Z,46.63
2018-11-04T20:22:05.881Z,50.17
2018-11-04T20:24:41.993Z,48.70
2018-11-04T20:27:13.521Z,43.83
2018-11-04T20:29:45.214Z,54.07
2018-11-04T20:32:21.553Z,53.00
2018-11-04T20:34:52.878Z,53.33
2018-11-04T20:37:24.039Z,53.80
2018-11-04T20:39:59.951Z,56.97
2018-11-04T20:42:31.655Z,52.60
2018-11-04T20:45:03.606Z,54.20
2018-11-04T20:47:39.419Z,65.23
2018-11-04T20:50:15.026Z,54.93
2018-11-04T20:52:45.056Z,52.30
2018-11-04T20:55:15.101Z,54.23
2018-11-04T20:57:48.099Z,51.63
2018-11-04T21:00:18.320Z,51.43
2018-11-04T21:02:48.282Z,53.67
2018-11-04T21:05:18.189Z,51.07
2018-11-04T21:07:48.083Z,53.63
2018-11-04T21:10:19.752Z,54.27
2018-11-04T21:12:49.559Z,54.53
2018-11-04T21:15:19.650Z,52.93
2018-11-04T21:17:49.661Z,55.00
2018-11-04T21:20:19.945Z,52.10
2018-11-04T21:22:49.968Z,55.33
2018-11-04T21:25:20.200Z,53.20
2018-11-04T21:27:50.646Z,48.43
2018-11-04T21:30:20.907Z,51.80
2018-11-04T21:32:51.042Z,49.97
2018-11-04T21:35:20.981Z,52.47
2018-11-04T21:37:50.972Z,52.17
2018-11-04T21:40:21.202Z,53.43
2018-11-04T21:42:51.266Z,53.87
2018-11-04T21:45:21.281Z,52.57
2018-11-04T21:47:51.200Z,51.83
2018-11-04T21:50:21.058Z,50.87
2018-11-04T21:52:50.896Z,50.37
2018-11-04T21:55:20.988Z,48.50
2018-11-04T21:57:50.899Z,49.37
2018-11-04T22:00:20.874Z,49.83
2018-11-04T22:02:50.740Z,48.63
2018-11-04T22:05:20.771Z,49.67
2018-11-04T22:07:54.081Z,49.10
2018-11-04T22:10:24.005Z,49.50
2018-11-04T22:12:53.752Z,49.70
2018-11-04T22:15:23.597Z,48.90
2018-11-04T22:17:53.577Z,49.20
2018-11-04T22:20:23.532Z,49.60
2018-11-04T22:22:53.677Z,51.30
2018-11-04T22:25:23.566Z,48.70
2018-11-04T22:27:53.625Z,47.50
2018-11-04T22:30:23.746Z,47.50
2018-11-04T22:32:55.568Z,49.87
2018-11-04T22:35:25.817Z,47.47
2018-11-04T22:37:55.573Z,42.97
2018-11-04T22:40:25.601Z,44.00
2018-11-04T22:42:55.560Z,45.27
2018-11-04T22:45:25.502Z,46.27
2018-11-04T22:47:55.890Z,43.20
2018-11-04T22:50:25.678Z,44.50
2018-11-04T22:52:55.620Z,46.73
2018-11-04T22:55:26.064Z,45.40
2018-11-04T22:57:59.779Z,45.30
2018-11-04T23:00:34.834Z,44.07
2018-11-04T23:03:04.614Z,45.47
2018-11-04T23:05:34.681Z,47.63
2018-11-04T23:08:05.108Z,45.50
2018-11-04T23:10:34.997Z,44.73
2018-11-04T23:13:05.092Z,45.23
2018-11-04T23:15:34.893Z,40.77
2018-11-04T23:18:04.724Z,43.57
2018-11-04T23:20:34.617Z,44.67
2018-11-04T23:23:04.708Z,43.27
2018-11-04T23:25:34.787Z,42.73
2018-11-04T23:28:04.539Z,42.27
2018-11-04T23:30:34.706Z,44.53
2018-11-04T23:33:04.732Z,43.40
2018-11-04T23:35:34.580Z,44.60
2018-11-04T23:38:04.672Z,42.10
2018-11-04T23:40:34.965Z,42.60
2018-11-04T23:43:04.918Z,43.07
2018-11-04T23:45:34.740Z,42.70
2018-11-04T23:48:04.561Z,42.67
2018-11-04T23:50:35.433Z,41.80
2018-11-04T23:53:05.637Z,40.63
2018-11-04T23:55:35.847Z,42.83
2018-11-04T23:58:05.778Z,42.23
